createdAt,value
2022-08-23T00:00:13.022Z,2.10
2022-08-23T00:02:43.756Z,2.47
2022-08-23T00:05:13.376Z,2.17
2022-08-23T00:07:45.236Z,2.27
2022-08-23T00:10:16.716Z,2.30
2022-08-23T00:12:46.258Z,2.73
2022-08-23T00:15:16.476Z,2.63
2022-08-23T00:17:46.385Z,3.33
2022-08-23T00:20:17.030Z,2.83
2022-08-23T00:22:45.619Z,2.30
2022-08-23T00:25:16.869Z,2.77
2022-08-23T00:27:45.567Z,2.43
2022-08-23T00:30:14.799Z,2.80
2022-08-23T00:32:45.721Z,2.80
2022-08-23T00:35:26.184Z,2.90
2022-08-23T00:38:32.999Z,2.93
2022-08-23T00:40:47.262Z,2.67
2022-08-23T00:43:36.233Z,2.90
2022-08-23T00:46:32.448Z,2.87
2022-08-23T00:49:05.841Z,2.53
2022-08-23T00:51:48.769Z,2.90
2022-08-23T00:54:24.140Z,2.70
2022-08-23T00:56:53.570Z,3.10
2022-08-23T00:59:22.593Z,2.60
2022-08-23T01:01:51.706Z,2.53
2022-08-23T01:04:21.811Z,2.67
2022-08-23T01:06:53.386Z,2.50
2022-08-23T01:09:23.330Z,2.50
2022-08-23T01:11:57.759Z,2.77
2022-08-23T01:14:31.152Z,3.30
2022-08-23T01:17:05.960Z,2.73
2022-08-23T01:19:38.677Z,2.30
2022-08-23T01:22:13.485Z,2.87
2022-08-23T01:25:06.864Z,2.87
2022-08-23T01:27:32.209Z,2.60
2022-08-23T01:30:01.783Z,2.43
2022-08-23T01:32:33.101Z,3.20
2022-08-23T01:35:02.090Z,2.90
2022-08-23T01:37:30.647Z,3.40
2022-08-23T01:40:00.408Z,2.83
2022-08-23T01:42:29.550Z,2.60
2022-08-23T01:44:58.628Z,3.00
2022-08-23T01:47:26.925Z,2.80
2022-08-23T01:49:55.714Z,3.30
2022-08-23T01:52:24.001Z,3.27
2022-08-23T01:54:52.849Z,2.70
2022-08-23T01:57:22.537Z,2.40
2022-08-23T01:59:50.762Z,2.50
2022-08-23T02:02:19.879Z,2.43
2022-08-23T02:04:48.396Z,2.97
2022-08-23T02:07:16.703Z,2.47
2022-08-23T02:09:45.052Z,2.83
2022-08-23T02:12:13.425Z,2.53
2022-08-23T02:14:43.597Z,2.83
2022-08-23T02:17:11.961Z,3.20
2022-08-23T02:19:40.662Z,2.23
2022-08-23T02:22:09.659Z,2.10
2022-08-23T02:24:41.811Z,2.13
2022-08-23T02:27:10.460Z,3.13
2022-08-23T02:29:39.961Z,3.20
2022-08-23T02:32:10.593Z,2.57
2022-08-23T02:34:40.811Z,2.80
2022-08-23T02:37:10.530Z,2.47
2022-08-23T02:39:39.365Z,2.57
2022-08-23T02:42:11.765Z,2.57
2022-08-23T02:44:40.713Z,2.77
2022-08-23T02:47:12.020Z,2.37
2022-08-23T02:49:40.389Z,2.50
2022-08-23T02:52:09.094Z,2.47
2022-08-23T02:54:37.595Z,2.40
2022-08-23T02:57:06.486Z,2.67
2022-08-23T02:59:35.426Z,2.70
2022-08-23T03:02:04.076Z,2.93
2022-08-23T03:04:33.784Z,2.87
2022-08-23T03:07:02.357Z,2.17
2022-08-23T03:09:30.603Z,2.60
2022-08-23T03:11:58.810Z,2.37
2022-08-23T03:14:27.882Z,2.53
2022-08-23T03:16:58.428Z,2.67
2022-08-23T03:19:26.835Z,2.27
2022-08-23T03:21:57.400Z,2.30
2022-08-23T03:24:25.930Z,2.70
2022-08-23T03:26:54.152Z,2.50
2022-08-23T03:29:23.097Z,2.63
2022-08-23T03:31:51.649Z,2.70
2022-08-23T03:34:22.404Z,2.20
2022-08-23T03:36:51.036Z,2.40
2022-08-23T03:39:20.640Z,2.70
2022-08-23T03:41:49.138Z,3.23
2022-08-23T03:44:17.466Z,3.07
2022-08-23T03:46:45.737Z,3.10
2022-08-23T03:49:13.893Z,2.90
2022-08-23T03:51:42.414Z,3.00
2022-08-23T03:54:10.977Z,2.63
2022-08-23T03:56:52.564Z,3.13
2022-08-23T03:59:20.880Z,2.60
2022-08-23T04:01:49.934Z,2.60
2022-08-23T04:04:18.325Z,3.13
2022-08-23T04:06:47.109Z,2.43
2022-08-23T04:09:16.591Z,3.23
2022-08-23T04:11:46.814Z,2.70
2022-08-23T04:14:15.102Z,2.53
2022-08-23T04:16:44.433Z,2.83
2022-08-23T04:19:15.732Z,2.80
2022-08-23T04:21:48.284Z,3.10
2022-08-23T04:24:17.370Z,3.83
2022-08-23T04:26:49.478Z,3.07
2022-08-23T04:29:33.744Z,3.00
2022-08-23T04:32:05.482Z,2.87
2022-08-23T04:34:36.898Z,2.63
2022-08-23T04:37:09.217Z,2.63
2022-08-23T04:39:58.967Z,2.30
2022-08-23T04:42:27.989Z,2.90
2022-08-23T04:44:56.217Z,2.53
2022-08-23T04:47:25.049Z,2.33
2022-08-23T04:49:53.333Z,2.17
2022-08-23T04:52:21.895Z,2.60
2022-08-23T04:54:50.495Z,2.43
2022-08-23T04:57:19.047Z,2.30
2022-08-23T04:59:48.670Z,2.40
2022-08-23T05:02:16.898Z,2.30
2022-08-23T05:04:45.198Z,2.50
2022-08-23T05:07:15.569Z,2.40
2022-08-23T05:09:44.060Z,3.73
2022-08-23T05:12:12.610Z,1.80
2022-08-23T05:14:40.805Z,1.90
2022-08-23T05:17:14.394Z,1.60
2022-08-23T05:19:44.206Z,1.67
2022-08-23T05:22:15.651Z,1.70
2022-08-23T05:24:43.901Z,1.87
2022-08-23T05:27:13.757Z,1.40
2022-08-23T05:29:42.367Z,1.63
2022-08-23T05:32:10.741Z,1.80
2022-08-23T05:34:40.487Z,1.50
2022-08-23T05:37:09.281Z,1.83
2022-08-23T05:39:37.653Z,1.60
2022-08-23T05:42:06.586Z,2.47
2022-08-23T05:44:36.426Z,1.67
2022-08-23T05:47:11.075Z,1.27
2022-08-23T05:49:41.881Z,2.00
2022-08-23T05:52:13.004Z,1.40
2022-08-23T05:54:42.114Z,1.67
2022-08-23T05:57:11.792Z,1.47
2022-08-23T05:59:42.058Z,1.43
2022-08-23T06:02:10.727Z,1.40
2022-08-23T06:04:40.565Z,1.50
2022-08-23T06:07:09.992Z,1.57
2022-08-23T06:09:38.585Z,1.10
2022-08-23T06:12:07.055Z,1.20
2022-08-23T06:14:35.502Z,1.27
2022-08-23T06:17:04.030Z,1.37
2022-08-23T06:19:32.322Z,1.00
2022-08-23T06:22:02.014Z,1.40
2022-08-23T06:24:30.525Z,1.23
2022-08-23T06:26:58.989Z,1.37
2022-08-23T06:29:27.308Z,1.40
2022-08-23T06:31:56.161Z,1.10
2022-08-23T06:34:26.798Z,1.40
2022-08-23T06:36:58.425Z,1.40
2022-08-23T06:39:34.401Z,1.00
2022-08-23T06:42:22.485Z,1.20
2022-08-23T06:44:56.872Z,1.10
2022-08-23T06:47:25.297Z,0.83
2022-08-23T06:49:57.430Z,1.00
2022-08-23T06:52:27.559Z,1.87
2022-08-23T06:54:57.790Z,1.00
2022-08-23T06:57:26.601Z,2.17
2022-08-23T06:59:55.232Z,1.00
2022-08-23T07:02:24.104Z,1.07
2022-08-23T07:04:54.315Z,0.90
2022-08-23T07:07:22.871Z,1.10
2022-08-23T07:09:51.058Z,1.23
2022-08-23T07:12:22.132Z,1.37
2022-08-23T07:14:50.634Z,1.20
2022-08-23T07:17:18.767Z,1.33
2022-08-23T07:19:47.169Z,1.43
2022-08-23T07:22:15.879Z,1.10
2022-08-23T07:24:44.215Z,2.03
2022-08-23T07:27:12.789Z,1.80
2022-08-23T07:29:42.876Z,1.60
2022-08-23T07:32:11.695Z,1.37
2022-08-23T07:34:39.976Z,1.20
2022-08-23T07:37:11.511Z,1.80
2022-08-23T07:39:44.240Z,1.30
2022-08-23T07:42:23.613Z,1.57
2022-08-23T07:44:54.312Z,1.30
2022-08-23T07:47:23.270Z,1.37
2022-08-23T07:49:52.037Z,1.43
2022-08-23T07:52:20.317Z,1.50
2022-08-23T07:54:49.332Z,1.10
2022-08-23T07:57:18.193Z,1.10
2022-08-23T07:59:48.616Z,1.73
2022-08-23T08:02:18.536Z,1.00
2022-08-23T08:04:46.758Z,1.20
2022-08-23T08:07:20.739Z,1.33
2022-08-23T08:09:49.735Z,1.37
2022-08-23T08:12:18.108Z,1.47
2022-08-23T08:14:48.258Z,1.30
2022-08-23T08:17:20.002Z,1.47
2022-08-23T08:19:50.511Z,1.00
2022-08-23T08:22:19.137Z,1.10
2022-08-23T08:24:47.809Z,1.20
2022-08-23T08:27:16.083Z,1.40
2022-08-23T08:29:44.998Z,1.30
2022-08-23T08:32:14.170Z,1.47
2022-08-23T08:34:44.243Z,1.43
2022-08-23T08:37:12.759Z,1.97
2022-08-23T08:39:45.919Z,1.63
2022-08-23T08:42:39.282Z,1.20
2022-08-23T08:45:11.750Z,1.70
2022-08-23T08:47:46.602Z,1.33
2022-08-23T08:50:24.236Z,1.67
2022-08-23T08:52:56.351Z,1.60
2022-08-23T08:55:30.089Z,1.55
2022-08-23T08:57:58.494Z,1.60
2022-08-23T09:00:30.395Z,1.13
2022-08-23T09:03:01.110Z,1.48
2022-08-23T09:05:34.458Z,1.10
2022-08-23T09:08:21.833Z,1.77
2022-08-23T09:10:59.948Z,1.20
2022-08-23T09:13:53.829Z,1.20
2022-08-23T09:16:31.612Z,1.38
2022-08-23T09:19:02.682Z,1.40
2022-08-23T09:21:38.974Z,1.38
2022-08-23T09:24:07.402Z,1.67
2022-08-23T09:26:36.810Z,1.38
2022-08-23T09:29:14.899Z,1.70
2022-08-23T09:31:45.480Z,1.58
2022-08-23T09:34:19.703Z,1.25
2022-08-23T09:36:52.155Z,1.42
2022-08-23T09:39:30.563Z,1.52
2022-08-23T09:42:00.770Z,1.27
2022-08-23T09:44:37.334Z,1.27
2022-08-23T09:47:11.833Z,1.38
2022-08-23T09:49:43.724Z,1.10
2022-08-23T09:52:22.288Z,1.17
2022-08-23T09:55:03.521Z,1.45
2022-08-23T09:57:34.952Z,1.27
2022-08-23T10:00:19.389Z,1.20
2022-08-23T10:02:47.959Z,1.63
2022-08-23T10:05:29.270Z,1.40
2022-08-23T10:08:01.145Z,1.05
2022-08-23T10:10:36.605Z,2.00
2022-08-23T10:13:06.384Z,1.50
2022-08-23T10:15:49.679Z,1.40
2022-08-23T10:18:29.534Z,1.25
2022-08-23T10:21:06.474Z,1.10
2022-08-23T10:23:49.510Z,1.27
2022-08-23T10:26:25.225Z,2.45
2022-08-23T10:29:21.030Z,1.58
2022-08-23T10:31:59.512Z,1.30
2022-08-23T10:34:46.017Z,1.40
2022-08-23T10:37:43.819Z,1.40
2022-08-23T10:40:20.999Z,1.20
2022-08-23T10:42:59.860Z,1.23
2022-08-23T10:45:30.773Z,0.80
2022-08-23T10:48:15.446Z,1.02
2022-08-23T10:50:55.475Z,0.93
2022-08-23T10:53:30.387Z,1.00
2022-08-23T10:56:04.371Z,1.17
2022-08-23T10:58:37.215Z,1.23
2022-08-23T11:01:07.485Z,1.40
2022-08-23T11:03:44.505Z,1.13
2022-08-23T11:06:29.295Z,1.17
2022-08-23T11:09:03.284Z,0.90
2022-08-23T11:11:42.342Z,1.33
2022-08-23T11:14:13.068Z,1.07
2022-08-23T11:16:48.413Z,1.00
2022-08-23T11:19:52.686Z,2.03
2022-08-23T11:22:23.148Z,1.03
2022-08-23T11:24:55.796Z,1.10
2022-08-23T11:27:31.770Z,0.90
2022-08-23T11:30:15.407Z,1.13
2022-08-23T11:32:46.674Z,1.20
2022-08-23T11:35:37.281Z,1.35
2022-08-23T11:38:11.639Z,1.02
2022-08-23T11:41:00.194Z,0.98
2022-08-23T11:43:34.716Z,0.95
2022-08-23T11:46:36.281Z,1.02
2022-08-23T11:49:41.445Z,0.80
2022-08-23T11:52:26.554Z,1.10
2022-08-23T11:55:22.450Z,1.00
2022-08-23T11:58:05.966Z,0.88
2022-08-23T12:00:59.570Z,1.23
2022-08-23T12:03:34.412Z,0.90
2022-08-23T12:06:12.587Z,1.30
2022-08-23T12:09:02.091Z,1.20
2022-08-23T12:12:01.106Z,0.77
2022-08-23T12:14:51.521Z,1.00
2022-08-23T12:17:57.155Z,1.00
2022-08-23T12:20:32.642Z,1.57
2022-08-23T12:23:22.994Z,1.63
2022-08-23T12:26:02.218Z,1.00
2022-08-23T12:28:39.383Z,1.20
2022-08-23T12:31:18.242Z,1.20
2022-08-23T12:34:12.859Z,1.20
2022-08-23T12:36:50.294Z,1.20
2022-08-23T12:39:25.432Z,1.50
2022-08-23T12:41:59.016Z,1.60
2022-08-23T12:44:29.242Z,1.20
2022-08-23T12:46:57.823Z,1.20
2022-08-23T12:49:29.859Z,1.00
2022-08-23T12:52:01.879Z,1.00
2022-08-23T12:54:40.431Z,1.10
2022-08-23T12:57:11.953Z,1.30
2022-08-23T12:59:47.946Z,1.10
2022-08-23T13:02:24.044Z,1.50
2022-08-23T13:04:54.054Z,1.37
2022-08-23T13:07:26.663Z,1.10
2022-08-23T13:09:56.788Z,1.20
2022-08-23T13:12:27.064Z,0.70
2022-08-23T13:14:57.519Z,1.40
2022-08-23T13:17:36.719Z,1.00
2022-08-23T13:20:21.916Z,1.20
2022-08-23T13:23:01.485Z,1.00
2022-08-23T13:25:33.359Z,1.10
2022-08-23T13:28:04.194Z,1.33
2022-08-23T13:30:36.321Z,1.30
2022-08-23T13:33:22.088Z,0.90
2022-08-23T13:35:51.806Z,1.10
2022-08-23T13:38:25.881Z,1.10
2022-08-23T13:41:01.358Z,1.10
2022-08-23T13:43:35.033Z,1.07
2022-08-23T13:46:14.060Z,0.97
2022-08-23T13:48:48.504Z,0.80
2022-08-23T13:51:25.424Z,0.70
2022-08-23T13:53:56.747Z,0.90
2022-08-23T13:56:26.600Z,0.93
2022-08-23T13:58:57.887Z,0.80
2022-08-23T14:01:26.913Z,1.07
2022-08-23T14:03:55.652Z,0.70
2022-08-23T14:06:25.603Z,1.00
2022-08-23T14:08:55.265Z,1.00
2022-08-23T14:11:23.541Z,1.00
2022-08-23T14:13:52.396Z,0.87
2022-08-23T14:16:34.180Z,1.13
2022-08-23T14:20:31.274Z,0.73
2022-08-23T14:21:53.885Z,1.00
2022-08-23T14:24:23.590Z,1.57
2022-08-23T14:26:52.658Z,0.90
2022-08-23T14:29:22.721Z,0.70
2022-08-23T14:31:52.411Z,0.90
2022-08-23T14:34:21.554Z,0.70
2022-08-23T14:39:41.463Z,1.00
2022-08-23T14:42:11.103Z,0.80
2022-08-23T14:44:39.326Z,1.10
2022-08-23T14:47:07.786Z,1.10
2022-08-23T14:49:36.478Z,1.00
2022-08-23T14:52:05.220Z,1.10
2022-08-23T14:54:34.499Z,1.20
2022-08-23T14:57:04.373Z,0.77
2022-08-23T14:59:32.710Z,0.70
2022-08-23T15:02:01.285Z,0.90
2022-08-23T15:04:34.062Z,0.83
2022-08-23T15:07:19.614Z,0.90
2022-08-23T15:09:48.638Z,1.10
2022-08-23T15:15:11.515Z,0.60
2022-08-23T15:17:48.455Z,1.20
2022-08-23T15:20:16.945Z,1.20
2022-08-23T15:22:55.790Z,0.90
2022-08-23T15:25:25.035Z,0.90
2022-08-23T15:27:55.646Z,1.10
2022-08-23T15:30:25.166Z,0.80
2022-08-23T15:32:56.660Z,1.00
2022-08-23T15:35:26.026Z,0.73
2022-08-23T15:37:56.008Z,1.10
2022-08-23T15:40:25.666Z,1.17
2022-08-23T15:42:55.988Z,1.13
2022-08-23T15:45:24.536Z,0.87
2022-08-23T15:47:55.357Z,0.70
2022-08-23T15:50:26.670Z,1.00
2022-08-23T15:52:55.910Z,1.10
2022-08-23T15:55:24.798Z,0.80
2022-08-23T15:57:58.400Z,0.90
2022-08-23T16:00:28.077Z,1.20
2022-08-23T16:03:27.977Z,1.13
2022-08-23T16:05:47.995Z,1.17
2022-08-23T16:08:20.762Z,1.20
2022-08-23T16:10:49.407Z,1.20
2022-08-23T16:13:19.824Z,0.93
2022-08-23T16:15:48.266Z,1.10
2022-08-23T16:18:17.086Z,0.83
2022-08-23T16:20:46.451Z,1.17
2022-08-23T16:23:15.104Z,1.20
2022-08-23T16:25:43.668Z,0.93
2022-08-23T16:28:11.967Z,0.97
2022-08-23T16:30:41.994Z,0.90
2022-08-23T16:33:10.363Z,1.00
2022-08-23T16:35:38.686Z,1.10
2022-08-23T16:38:07.129Z,0.97
2022-08-23T16:40:35.366Z,1.03
2022-08-23T16:43:04.045Z,1.27
2022-08-23T16:45:32.585Z,1.30
2022-08-23T16:48:02.294Z,1.07
2022-08-23T16:50:32.963Z,1.13
2022-08-23T16:53:05.087Z,1.30
2022-08-23T16:55:35.802Z,1.20
2022-08-23T16:58:04.739Z,1.33
2022-08-23T17:00:33.062Z,1.30
2022-08-23T17:03:03.240Z,1.47
2022-08-23T17:05:32.041Z,1.23
2022-08-23T17:08:01.921Z,1.30
2022-08-23T17:10:30.313Z,1.23
2022-08-23T17:12:59.973Z,1.47
2022-08-23T17:15:30.722Z,1.57
2022-08-23T17:18:00.859Z,1.40
2022-08-23T17:20:32.831Z,1.50
2022-08-23T17:23:01.519Z,1.20
2022-08-23T17:25:34.723Z,1.40
2022-08-23T17:28:04.680Z,1.43
2022-08-23T17:30:33.128Z,1.33
2022-08-23T17:33:01.780Z,1.60
2022-08-23T17:35:33.627Z,1.67
2022-08-23T17:38:03.382Z,1.10
2022-08-23T17:40:35.190Z,1.40
2022-08-23T17:43:03.669Z,1.27
2022-08-23T17:45:35.609Z,1.30
2022-08-23T17:48:04.350Z,1.37
2022-08-23T17:50:34.652Z,1.50
2022-08-23T17:53:04.358Z,1.77
2022-08-23T17:55:35.805Z,1.70
2022-08-23T17:58:04.904Z,1.50
2022-08-23T18:00:34.737Z,1.67
2022-08-23T18:03:03.212Z,1.30
2022-08-23T18:05:34.491Z,1.27
2022-08-23T18:08:03.303Z,2.33
2022-08-23T18:10:31.572Z,1.57
2022-08-23T18:13:00.227Z,1.60
2022-08-23T18:15:30.184Z,1.40
2022-08-23T18:18:00.986Z,1.53
2022-08-23T18:20:30.253Z,1.50
2022-08-23T18:23:00.735Z,1.40
2022-08-23T18:25:30.481Z,2.00
2022-08-23T18:28:08.180Z,1.67
2022-08-23T18:30:38.017Z,1.53
2022-08-23T18:33:07.598Z,1.47
2022-08-23T18:35:41.923Z,1.63
2022-08-23T18:38:13.390Z,1.37
2022-08-23T18:40:46.366Z,1.33
2022-08-23T18:43:16.947Z,1.70
2022-08-23T18:45:46.366Z,1.53
2022-08-23T18:48:15.378Z,1.73
2022-08-23T18:50:43.732Z,1.53
2022-08-23T18:53:14.322Z,1.57
2022-08-23T18:55:44.062Z,1.80
2022-08-23T18:58:12.888Z,1.97
2022-08-23T19:00:41.823Z,1.97
2022-08-23T19:03:11.026Z,2.03
2022-08-23T19:05:42.390Z,1.67
2022-08-23T19:08:13.177Z,1.87
2022-08-23T19:10:42.216Z,1.70
2022-08-23T19:13:12.853Z,1.60
2022-08-23T19:15:42.133Z,2.07
2022-08-23T19:18:11.093Z,1.90
2022-08-23T19:20:39.932Z,1.70
2022-08-23T19:23:08.122Z,1.63
2022-08-23T19:25:38.661Z,2.07
2022-08-23T19:28:07.260Z,1.73
2022-08-23T19:30:35.686Z,1.97
2022-08-23T19:33:04.284Z,1.57
2022-08-23T19:35:32.811Z,2.20
2022-08-23T19:38:01.098Z,2.27
2022-08-23T19:40:29.668Z,1.80
2022-08-23T19:43:00.495Z,2.00
2022-08-23T19:45:32.032Z,1.83
2022-08-23T19:48:01.038Z,2.03
2022-08-23T19:50:29.977Z,2.40
2022-08-23T19:52:58.444Z,1.57
2022-08-23T19:55:27.937Z,2.07
2022-08-23T19:57:58.311Z,2.30
2022-08-23T20:00:29.440Z,1.63
2022-08-23T20:02:57.765Z,1.60
2022-08-23T20:05:25.973Z,1.40
2022-08-23T20:07:54.332Z,1.50
2022-08-23T20:10:23.291Z,1.90
2022-08-23T20:12:51.489Z,1.80
2022-08-23T20:15:22.231Z,1.80
2022-08-23T20:17:50.594Z,1.67
2022-08-23T20:20:18.796Z,2.10
2022-08-23T20:23:04.838Z,1.83
2022-08-23T20:25:33.688Z,2.10
2022-08-23T20:28:05.243Z,2.53
2022-08-23T20:30:35.750Z,2.00
2022-08-23T20:33:05.147Z,2.27
2022-08-23T20:35:33.514Z,2.43
2022-08-23T20:38:02.613Z,2.20
2022-08-23T20:40:31.429Z,2.63
2022-08-23T20:42:59.777Z,2.23
2022-08-23T20:45:27.961Z,2.50
2022-08-23T20:47:57.549Z,2.30
2022-08-23T20:50:26.774Z,2.40
2022-08-23T20:52:56.027Z,2.73
2022-08-23T20:55:27.669Z,2.20
2022-08-23T20:57:55.878Z,2.17
2022-08-23T21:00:24.091Z,2.50
2022-08-23T21:02:52.437Z,2.10
2022-08-23T21:05:22.048Z,2.50
2022-08-23T21:07:51.243Z,2.97
2022-08-23T21:10:19.908Z,2.43
2022-08-23T21:12:48.412Z,2.33
2022-08-23T21:15:16.707Z,1.77
2022-08-23T21:17:47.022Z,1.87
2022-08-23T21:20:16.162Z,1.73
2022-08-23T21:22:46.343Z,2.10
2022-08-23T21:25:14.614Z,1.67
2022-08-23T21:27:43.043Z,2.03
2022-08-23T21:30:12.539Z,1.80
2022-08-23T21:32:40.789Z,2.10
2022-08-23T21:35:09.910Z,2.00
2022-08-23T21:37:38.633Z,1.97
2022-08-23T21:40:09.410Z,2.10
2022-08-23T21:42:37.950Z,1.70
2022-08-23T21:45:07.559Z,1.90
2022-08-23T21:47:35.801Z,1.77
2022-08-23T21:50:04.210Z,1.83
2022-08-23T21:52:32.762Z,1.57
2022-08-23T21:55:01.420Z,1.37
2022-08-23T21:57:31.372Z,1.50
2022-08-23T22:00:00.813Z,1.50
2022-08-23T22:02:29.081Z,1.27
2022-08-23T22:04:57.273Z,1.53
2022-08-23T22:07:25.852Z,1.23
2022-08-23T22:09:54.100Z,1.27
2022-08-23T22:12:25.043Z,1.20
2022-08-23T22:14:55.974Z,1.30
2022-08-23T22:17:24.158Z,1.30
2022-08-23T22:19:52.507Z,1.77
2022-08-23T22:22:21.427Z,1.20
2022-08-23T22:24:49.581Z,1.50
2022-08-23T22:27:18.650Z,1.40
2022-08-23T22:29:47.059Z,1.13
2022-08-23T22:32:16.606Z,1.30
2022-08-23T22:34:44.838Z,1.23
2022-08-23T22:37:13.216Z,1.33
2022-08-23T22:39:41.691Z,1.20
2022-08-23T22:42:10.184Z,1.30
2022-08-23T22:44:39.070Z,1.20
2022-08-23T22:47:07.841Z,1.47
2022-08-23T22:49:37.442Z,1.27
2022-08-23T22:52:06.004Z,1.20
2022-08-23T22:54:34.497Z,1.60
2022-08-23T22:57:02.621Z,1.10
2022-08-23T22:59:32.151Z,1.20
2022-08-23T23:02:03.354Z,1.17
2022-08-23T23:04:34.022Z,1.20
2022-08-23T23:07:04.020Z,1.40
2022-08-23T23:09:32.352Z,1.50
2022-08-23T23:12:00.781Z,1.20
2022-08-23T23:14:29.086Z,1.30
2022-08-23T23:16:57.411Z,1.00
2022-08-23T23:19:42.973Z,1.20
2022-08-23T23:22:15.628Z,1.10
2022-08-23T23:24:43.911Z,1.17
2022-08-23T23:27:12.474Z,1.40
2022-08-23T23:29:42.114Z,1.17
2022-08-23T23:32:10.318Z,1.30
2022-08-23T23:34:38.817Z,1.30
2022-08-23T23:37:07.569Z,1.23
2022-08-23T23:39:37.338Z,1.23
2022-08-23T23:42:05.955Z,1.97
2022-08-23T23:44:34.369Z,1.30
2022-08-23T23:47:03.160Z,1.30
2022-08-23T23:49:33.641Z,1.30
2022-08-23T23:52:03.244Z,1.33
2022-08-23T23:54:31.913Z,1.33
2022-08-23T23:57:01.904Z,1.53
2022-08-23T23:59:30.565Z,1.63
